createdAt,value
2017-11-26T00:01:31.074Z,100969.19
2017-11-26T00:03:57.914Z,100976.42
2017-11-26T00:06:24.759Z,100976.70
2017-11-26T00:08:51.561Z,100979.73
2017-11-26T00:11:18.418Z,100981.06
2017-11-26T00:13:45.295Z,100980.98
2017-11-26T00:16:12.143Z,100995.00
2017-11-26T00:18:39.040Z,100986.80
2017-11-26T00:21:05.925Z,100990.93
2017-11-26T00:23:33.903Z,100984.38
2017-11-26T00:26:00.837Z,100996.87
2017-11-26T00:28:27.653Z,101002.02
2017-11-26T00:30:54.526Z,101001.10
2017-11-26T00:33:29.536Z,100987.48
2017-11-26T00:35:58.555Z,100990.28
2017-11-26T00:38:32.418Z,100992.52
2017-11-26T00:41:07.560Z,100994.39
2017-11-26T00:43:39.553Z,100992.28
2017-11-26T00:46:12.612Z,100998.03
2017-11-26T00:48:46.138Z,100991.23
2017-11-26T00:51:23.634Z,100996.55
2017-11-26T00:56:27.901Z,100996.16
2017-11-26T00:58:55.795Z,101003.80
2017-11-26T01:01:33.975Z,101002.76
2017-11-26T01:04:04.270Z,100995.33
2017-11-26T01:06:47.258Z,101003.77
2017-11-26T01:09:18.976Z,101010.60
2017-11-26T01:11:48.223Z,101011.34
2017-11-26T01:14:20.307Z,101013.53
2017-11-26T01:16:56.877Z,101017.27
2017-11-26T01:19:27.292Z,101012.08
2017-11-26T01:21:59.367Z,101020.97
2017-11-26T01:24:33.018Z,101019.55
2017-11-26T01:27:01.130Z,101020.55
2017-11-26T01:32:10.902Z,101021.41
2017-11-26T01:34:44.226Z,101024.25
2017-11-26T01:37:20.903Z,101021.86
2017-11-26T01:42:22.735Z,101020.63
2017-11-26T01:44:53.945Z,101021.64
2017-11-26T01:47:24.097Z,101023.52
2017-11-26T01:52:25.355Z,101022.60
2017-11-26T01:54:55.722Z,101021.64
2017-11-26T01:57:29.353Z,101021.28
2017-11-26T02:00:01.858Z,101018.94
2017-11-26T02:02:30.964Z,101028.83
2017-11-26T02:05:01.077Z,101038.95
2017-11-26T02:07:33.183Z,101028.61
2017-11-26T02:10:07.577Z,101028.12
2017-11-26T02:12:39.927Z,101030.19
2017-11-26T02:17:56.543Z,101027.30
2017-11-26T02:20:25.670Z,101026.97
2017-11-26T02:25:30.664Z,101027.88
2017-11-26T02:27:58.757Z,101031.66
2017-11-26T02:30:44.410Z,101027.73
2017-11-26T02:33:31.836Z,101037.42
2017-11-26T02:36:18.433Z,101032.25
2017-11-26T02:41:29.494Z,101034.55
2017-11-26T02:43:57.730Z,101030.45
2017-11-26T02:49:04.768Z,101037.68
2017-11-26T02:51:43.827Z,101039.95
2017-11-26T02:56:51.616Z,101042.61
2017-11-26T02:59:19.960Z,101042.23
2017-11-26T03:01:48.530Z,101046.41
2017-11-26T03:04:22.352Z,101044.84
2017-11-26T03:06:50.562Z,101047.50
2017-11-26T03:09:22.570Z,101048.84
2017-11-26T03:11:53.037Z,101051.72
2017-11-26T03:16:55.472Z,101065.36
2017-11-26T03:22:16.877Z,101052.26
2017-11-26T03:24:45.091Z,101052.35
2017-11-26T03:27:12.395Z,101056.14
2017-11-26T03:29:40.028Z,101056.44
2017-11-26T03:32:08.433Z,101053.95
2017-11-26T03:34:45.765Z,101052.21
2017-11-26T03:37:16.547Z,101059.63
2017-11-26T03:40:00.257Z,101058.71
2017-11-26T03:42:35.622Z,101057.41
2017-11-26T03:45:04.790Z,101052.77
2017-11-26T03:47:35.175Z,101055.02
2017-11-26T03:50:02.285Z,101056.39
2017-11-26T03:52:34.399Z,101050.33
2017-11-26T03:55:09.550Z,101050.28
2017-11-26T03:57:41.907Z,101052.38
2017-11-26T04:00:11.080Z,101064.59
2017-11-26T04:02:41.549Z,101054.77
2017-11-26T04:05:12.285Z,101053.56
2017-11-26T04:07:48.286Z,101044.45
2017-11-26T04:10:23.611Z,101049.20
2017-11-26T04:13:00.724Z,101045.19
2017-11-26T04:15:39.573Z,101056.14
2017-11-26T04:18:18.279Z,101048.69
2017-11-26T04:20:46.030Z,101058.06
2017-11-26T04:23:15.071Z,101051.72
2017-11-26T04:25:44.274Z,101047.83
2017-11-26T04:28:13.970Z,101049.19
2017-11-26T04:30:48.207Z,101043.84
2017-11-26T04:33:18.352Z,101042.25
2017-11-26T04:35:46.381Z,101044.58
2017-11-26T04:38:14.113Z,101046.87
2017-11-26T04:40:44.440Z,101044.92
2017-11-26T04:43:12.317Z,101053.63
2017-11-26T04:45:43.679Z,101041.95
2017-11-26T04:50:49.659Z,101050.03
2017-11-26T04:53:18.985Z,101043.86
2017-11-26T04:55:50.579Z,101050.53
2017-11-26T04:58:24.549Z,101050.02
2017-11-26T05:00:53.551Z,101053.52
2017-11-26T05:03:29.455Z,101048.89
2017-11-26T05:06:02.030Z,101052.62
2017-11-26T05:08:37.191Z,101048.06
2017-11-26T05:11:15.533Z,101048.94
2017-11-26T05:13:50.487Z,101058.56
2017-11-26T05:16:19.729Z,101050.02
2017-11-26T05:18:49.046Z,101057.50
2017-11-26T05:21:16.908Z,101057.30
2017-11-26T05:23:44.852Z,101062.29
2017-11-26T05:26:18.740Z,101048.29
2017-11-26T05:28:55.036Z,101064.72
2017-11-26T05:31:30.084Z,101052.59
2017-11-26T05:34:05.191Z,101056.20
2017-11-26T05:36:53.640Z,101049.80
2017-11-26T05:39:27.730Z,101058.73
2017-11-26T05:41:57.117Z,101058.89
2017-11-26T05:44:27.385Z,101064.52
2017-11-26T05:46:58.445Z,101057.57
2017-11-26T05:49:28.258Z,101058.97
2017-11-26T05:51:56.510Z,101056.03
2017-11-26T05:54:35.135Z,101052.50
2017-11-26T05:57:08.725Z,101056.78
2017-11-26T05:59:40.249Z,101058.17
2017-11-26T06:02:15.985Z,101066.55
2017-11-26T06:04:52.913Z,101057.17
2017-11-26T06:07:27.813Z,101051.63
2017-11-26T06:09:59.866Z,101061.86
2017-11-26T06:13:20.827Z,101065.27
2017-11-26T06:15:49.378Z,101065.78
2017-11-26T06:21:14.732Z,101070.30
2017-11-26T06:23:53.563Z,101080.13
2017-11-26T06:28:58.735Z,101077.72
2017-11-26T06:31:29.258Z,101075.52
2017-11-26T06:34:05.787Z,101074.63
2017-11-26T06:36:36.681Z,101078.67
2017-11-26T06:39:12.191Z,101082.39
2017-11-26T06:44:20.691Z,101085.13
2017-11-26T06:46:53.734Z,101081.32
2017-11-26T06:49:23.979Z,101081.05
2017-11-26T06:51:59.288Z,101079.73
2017-11-26T06:59:48.985Z,101093.73
2017-11-26T07:02:18.306Z,101100.42
2017-11-26T07:04:54.794Z,101106.38
2017-11-26T07:07:31.086Z,101113.72
2017-11-26T07:10:06.626Z,101120.63
2017-11-26T07:12:41.724Z,101119.88
2017-11-26T07:15:17.159Z,101117.63
2017-11-26T07:23:00.602Z,101126.75
2017-11-26T07:25:30.617Z,101133.69
2017-11-26T07:27:59.167Z,101140.52
2017-11-26T07:30:29.273Z,101130.19
2017-11-26T07:32:58.023Z,101134.44
2017-11-26T07:35:31.835Z,101140.98
2017-11-26T07:38:00.775Z,101138.20
2017-11-26T07:40:32.737Z,101138.69
2017-11-26T07:43:08.239Z,101136.22
2017-11-26T07:45:40.375Z,101139.34
2017-11-26T07:48:12.184Z,101138.25
2017-11-26T07:50:42.552Z,101141.30
2017-11-26T07:55:51.094Z,101144.98
2017-11-26T07:58:21.237Z,101147.28
2017-11-26T08:00:53.521Z,101144.83
2017-11-26T08:03:20.441Z,101142.76
2017-11-26T08:05:48.022Z,101144.31
2017-11-26T08:08:15.603Z,101148.98
2017-11-26T08:10:42.495Z,101158.91
2017-11-26T08:13:09.355Z,101162.55
2017-11-26T08:15:36.207Z,101167.74
2017-11-26T08:18:03.115Z,101163.38
2017-11-26T08:20:29.940Z,101166.20
2017-11-26T08:22:56.799Z,101171.16
2017-11-26T08:25:23.653Z,101165.52
2017-11-26T08:27:50.515Z,101156.60
2017-11-26T08:30:17.317Z,101162.47
2017-11-26T08:32:44.160Z,101167.11
2017-11-26T08:35:11.021Z,101164.50
2017-11-26T08:37:37.848Z,101175.04
2017-11-26T08:40:05.373Z,101174.88
2017-11-26T08:42:32.225Z,101176.23
2017-11-26T08:44:59.271Z,101180.20
2017-11-26T08:47:26.119Z,101181.70
2017-11-26T08:49:53.153Z,101177.50
2017-11-26T08:52:20.056Z,101187.45
2017-11-26T08:54:46.953Z,101192.65
2017-11-26T08:57:13.839Z,101183.13
2017-11-26T08:59:40.816Z,101188.73
2017-11-26T09:02:08.244Z,101188.20
2017-11-26T09:04:35.195Z,101190.27
2017-11-26T09:07:04.041Z,101193.88
2017-11-26T09:09:31.661Z,101198.36
2017-11-26T09:11:58.542Z,101193.44
2017-11-26T09:14:25.432Z,101192.92
2017-11-26T09:16:52.286Z,101199.00
2017-11-26T09:19:19.142Z,101202.09
2017-11-26T09:21:46.025Z,101202.33
2017-11-26T09:24:13.667Z,101197.52
2017-11-26T09:26:40.590Z,101204.55
2017-11-26T09:29:07.472Z,101204.98
2017-11-26T09:31:35.673Z,101211.89
2017-11-26T09:34:02.524Z,101211.38
2017-11-26T09:36:29.357Z,101208.91
2017-11-26T09:38:56.909Z,101221.36
2017-11-26T09:41:23.830Z,101215.09
2017-11-26T09:43:50.669Z,101221.13
2017-11-26T09:46:17.487Z,101220.29
2017-11-26T09:48:44.380Z,101219.06
2017-11-26T09:51:11.978Z,101226.79
2017-11-26T09:53:38.847Z,101232.19
2017-11-26T09:56:05.678Z,101221.43
2017-11-26T09:58:33.241Z,101224.40
2017-11-26T10:01:00.076Z,101225.05
2017-11-26T10:03:26.956Z,101222.66
2017-11-26T10:05:53.824Z,101225.27
2017-11-26T10:08:21.436Z,101216.98
2017-11-26T10:10:48.344Z,101216.90
2017-11-26T10:13:15.262Z,101219.59
2017-11-26T10:15:42.166Z,101210.64
2017-11-26T10:18:09.019Z,101213.89
2017-11-26T10:20:35.887Z,101212.22
2017-11-26T10:23:02.763Z,101206.41
2017-11-26T10:25:29.668Z,101218.17
2017-11-26T10:27:56.509Z,101206.64
2017-11-26T10:30:24.129Z,101208.77
2017-11-26T10:32:50.992Z,101213.06
2017-11-26T10:35:17.893Z,101219.17
2017-11-26T10:37:44.761Z,101223.98
2017-11-26T10:40:11.622Z,101222.97
2017-11-26T10:42:39.288Z,101213.31
2017-11-26T10:45:06.195Z,101222.80
2017-11-26T10:47:33.094Z,101225.38
2017-11-26T10:49:59.974Z,101226.86
2017-11-26T10:52:26.888Z,101225.38
2017-11-26T10:54:53.800Z,101226.33
2017-11-26T10:57:20.718Z,101215.67
2017-11-26T10:59:47.693Z,101230.96
2017-11-26T11:02:14.619Z,101231.78
2017-11-26T11:04:42.294Z,101229.61
2017-11-26T11:07:09.922Z,101228.62
2017-11-26T11:09:36.827Z,101228.19
2017-11-26T11:12:04.800Z,101228.92
2017-11-26T11:14:31.633Z,101221.90
2017-11-26T11:16:58.549Z,101232.29
2017-11-26T11:19:26.249Z,101227.39
2017-11-26T11:21:53.127Z,101222.20
2017-11-26T11:24:20.739Z,101234.04
2017-11-26T11:26:47.576Z,101223.98
2017-11-26T11:29:14.492Z,101229.53
2017-11-26T11:31:41.392Z,101231.77
2017-11-26T11:34:08.254Z,101221.38
2017-11-26T11:36:35.099Z,101227.83
2017-11-26T11:39:01.957Z,101229.00
2017-11-26T11:41:28.765Z,101229.73
2017-11-26T11:43:55.917Z,101215.21
2017-11-26T11:46:22.751Z,101234.49
2017-11-26T11:48:50.189Z,101227.45
2017-11-26T11:51:17.868Z,101231.58
2017-11-26T11:53:45.041Z,101231.96
2017-11-26T11:56:11.969Z,101226.44
2017-11-26T11:58:38.863Z,101229.24
2017-11-26T12:01:05.806Z,101239.73
2017-11-26T12:03:34.019Z,101237.11
2017-11-26T12:06:01.672Z,101232.25
2017-11-26T12:08:28.608Z,101230.12
2017-11-26T12:10:55.573Z,101232.08
2017-11-26T12:13:22.477Z,101225.79
2017-11-26T12:15:49.397Z,101231.59
2017-11-26T12:18:16.366Z,101233.63
2017-11-26T12:20:43.306Z,101235.42
2017-11-26T12:23:10.202Z,101236.20
2017-11-26T12:25:37.113Z,101242.41
2017-11-26T12:28:04.813Z,101241.20
2017-11-26T12:30:31.761Z,101243.09
2017-11-26T12:32:58.712Z,101246.63
2017-11-26T12:35:26.425Z,101244.22
2017-11-26T12:37:53.388Z,101244.59
2017-11-26T12:40:20.326Z,101246.11
2017-11-26T12:42:48.021Z,101252.51
2017-11-26T12:45:15.001Z,101251.48
2017-11-26T12:47:45.115Z,101253.88
2017-11-26T12:50:12.178Z,101259.91
2017-11-26T12:52:39.130Z,101252.76
2017-11-26T12:55:06.883Z,101258.97
2017-11-26T12:57:33.870Z,101251.88
2017-11-26T13:00:00.839Z,101253.11
2017-11-26T13:02:28.542Z,101258.70
2017-11-26T13:04:55.492Z,101246.20
2017-11-26T13:07:23.470Z,101254.69
2017-11-26T13:09:50.588Z,101258.09
2017-11-26T13:12:17.715Z,101256.50
2017-11-26T13:14:45.417Z,101260.92
2017-11-26T13:17:12.386Z,101266.17
2017-11-26T13:19:40.243Z,101273.02
2017-11-26T13:22:08.124Z,101265.97
2017-11-26T13:24:38.157Z,101263.05
2017-11-26T13:27:07.690Z,101265.83
2017-11-26T13:29:40.028Z,101270.02
2017-11-26T13:32:07.060Z,101264.81
2017-11-26T13:34:34.025Z,101273.45
2017-11-26T13:37:00.922Z,101277.49
2017-11-26T13:39:27.835Z,101281.77
2017-11-26T13:41:54.775Z,101273.90
2017-11-26T13:44:22.993Z,101278.41
2017-11-26T13:46:49.953Z,101267.05
2017-11-26T13:49:16.908Z,101276.95
2017-11-26T13:51:43.881Z,101278.70
2017-11-26T13:54:10.796Z,101275.30
2017-11-26T13:56:37.759Z,101273.08
2017-11-26T13:59:04.705Z,101274.23
2017-11-26T14:01:31.660Z,101278.91
2017-11-26T14:03:58.673Z,101283.52
2017-11-26T14:06:26.371Z,101286.83
2017-11-26T14:08:54.033Z,101284.16
2017-11-26T14:11:21.694Z,101284.05
2017-11-26T14:13:51.263Z,101291.59
2017-11-26T14:16:18.195Z,101289.11
2017-11-26T14:18:45.146Z,101289.27
2017-11-26T14:21:12.128Z,101296.11
2017-11-26T14:23:39.769Z,101303.12
2017-11-26T14:26:06.699Z,101303.11
2017-11-26T14:28:34.411Z,101299.70
2017-11-26T14:31:01.356Z,101291.45
2017-11-26T14:33:29.045Z,101306.47
2017-11-26T14:35:55.945Z,101304.72
2017-11-26T14:38:22.973Z,101309.67
2017-11-26T14:40:49.904Z,101299.17
2017-11-26T14:43:17.468Z,101302.23
2017-11-26T14:45:45.804Z,101304.86
2017-11-26T14:48:13.561Z,101308.75
2017-11-26T14:50:40.965Z,101314.39
2017-11-26T14:53:08.477Z,101314.92
2017-11-26T14:55:36.221Z,101325.33
2017-11-26T14:58:03.363Z,101329.79
2017-11-26T15:00:30.313Z,101326.39
2017-11-26T15:02:58.181Z,101328.92
2017-11-26T15:05:25.841Z,101325.41
2017-11-26T15:07:52.766Z,101334.70
2017-11-26T15:10:19.858Z,101326.44
2017-11-26T15:12:46.778Z,101334.40
2017-11-26T15:15:13.670Z,101329.23
2017-11-26T15:17:40.608Z,101328.19
2017-11-26T15:20:07.517Z,101331.77
2017-11-26T15:22:34.452Z,101330.66
2017-11-26T15:25:01.375Z,101330.25
2017-11-26T15:27:29.024Z,101325.71
2017-11-26T15:29:55.905Z,101324.66
2017-11-26T15:32:22.835Z,101324.17
2017-11-26T15:34:49.739Z,101324.75
2017-11-26T15:37:17.719Z,101323.58
2017-11-26T15:39:44.865Z,101330.56
2017-11-26T15:42:11.982Z,101336.55
2017-11-26T15:44:39.160Z,101339.23
2017-11-26T15:47:06.096Z,101350.28
2017-11-26T15:49:33.932Z,101349.84
2017-11-26T15:52:00.878Z,101353.64
2017-11-26T15:54:28.518Z,101354.56
2017-11-26T15:56:55.995Z,101358.11
2017-11-26T15:59:23.780Z,101360.77
2017-11-26T16:01:51.434Z,101367.73
2017-11-26T16:04:19.188Z,101367.30
2017-11-26T16:06:47.308Z,101367.33
2017-11-26T16:09:14.398Z,101365.59
2017-11-26T16:11:41.865Z,101368.95
2017-11-26T16:14:11.342Z,101372.02
2017-11-26T16:16:39.461Z,101374.89
2017-11-26T16:19:06.821Z,101378.18
2017-11-26T16:21:33.774Z,101376.08
2017-11-26T16:24:01.602Z,101368.60
2017-11-26T16:26:28.855Z,101372.45
2017-11-26T16:28:56.135Z,101379.19
2017-11-26T16:31:23.216Z,101384.07
2017-11-26T16:33:50.156Z,101377.82
2017-11-26T16:36:18.192Z,101372.05
2017-11-26T16:38:45.339Z,101383.06
2017-11-26T16:41:13.377Z,101383.98
2017-11-26T16:43:41.470Z,101377.52
2017-11-26T16:46:08.431Z,101387.48
2017-11-26T16:48:35.603Z,101395.31
2017-11-26T16:51:05.933Z,101391.73
2017-11-26T16:53:36.248Z,101400.83
2017-11-26T16:56:03.550Z,101395.09
2017-11-26T16:58:30.744Z,101394.39
2017-11-26T17:00:58.284Z,101401.86
2017-11-26T17:03:25.763Z,101397.94
2017-11-26T17:05:53.017Z,101403.18
2017-11-26T17:08:20.940Z,101407.52
2017-11-26T17:10:49.075Z,101405.36
2017-11-26T17:13:16.095Z,101410.86
2017-11-26T17:15:43.919Z,101407.19
2017-11-26T17:18:12.377Z,101407.28
2017-11-26T17:20:39.494Z,101409.63
2017-11-26T17:23:07.399Z,101418.77
2017-11-26T17:25:34.913Z,101434.06
2017-11-26T17:28:02.165Z,101416.70
2017-11-26T17:30:31.897Z,101420.39
2017-11-26T17:32:59.976Z,101415.40
2017-11-26T17:35:28.566Z,101420.67
2017-11-26T17:37:56.639Z,101425.76
2017-11-26T17:40:23.626Z,101425.56
2017-11-26T17:42:52.537Z,101430.21
2017-11-26T17:45:22.270Z,101422.39
2017-11-26T17:47:50.743Z,101435.05
2017-11-26T17:50:20.023Z,101440.42
2017-11-26T17:52:49.186Z,101439.03
2017-11-26T17:55:17.559Z,101440.82
2017-11-26T17:57:45.211Z,101443.52
2017-11-26T18:00:13.865Z,101443.08
2017-11-26T18:02:40.909Z,101447.22
2017-11-26T18:05:07.855Z,101443.84
2017-11-26T18:07:35.766Z,101443.87
2017-11-26T18:10:04.132Z,101440.97
2017-11-26T18:12:31.102Z,101451.14
2017-11-26T18:15:00.047Z,101449.72
2017-11-26T18:17:27.489Z,101451.58
2017-11-26T18:19:57.462Z,101453.25
2017-11-26T18:22:24.994Z,101455.52
2017-11-26T18:24:52.074Z,101452.02
2017-11-26T18:27:20.353Z,101451.00
2017-11-26T18:29:51.499Z,101459.41
2017-11-26T18:32:22.936Z,101462.51
2017-11-26T18:34:54.203Z,101467.53
2017-11-26T18:37:24.136Z,101467.09
2017-11-26T18:39:52.034Z,101460.68
2017-11-26T18:42:19.834Z,101468.48
2017-11-26T18:44:49.529Z,101470.12
2017-11-26T18:47:19.540Z,101473.06
2017-11-26T18:49:49.600Z,101471.02
2017-11-26T18:52:18.538Z,101467.23
2017-11-26T18:54:47.358Z,101472.38
2017-11-26T18:57:16.234Z,101473.86
2017-11-26T18:59:45.152Z,101468.33
2017-11-26T19:02:14.044Z,101462.66
2017-11-26T19:04:43.127Z,101469.12
2017-11-26T19:07:12.001Z,101474.84
2017-11-26T19:09:41.056Z,101470.80
2017-11-26T19:12:09.764Z,101473.35
2017-11-26T19:14:38.438Z,101472.19
2017-11-26T19:17:05.895Z,101475.61
2017-11-26T19:19:34.614Z,101470.11
2017-11-26T19:22:02.139Z,101469.93
2017-11-26T19:24:30.185Z,101470.87
2017-11-26T19:26:57.130Z,101480.63
2017-11-26T19:29:24.953Z,101483.31
2017-11-26T19:31:53.469Z,101477.83
2017-11-26T19:34:23.133Z,101481.61
2017-11-26T19:36:52.095Z,101482.23
2017-11-26T19:39:21.907Z,101474.11
2017-11-26T19:41:51.879Z,101477.14
2017-11-26T19:44:19.616Z,101477.86
2017-11-26T19:46:47.441Z,101480.95
2017-11-26T19:49:15.290Z,101479.24
2017-11-26T19:51:43.825Z,101484.29
2017-11-26T19:54:11.773Z,101476.12
2017-11-26T19:56:38.968Z,101474.84
2017-11-26T19:59:06.968Z,101476.02
2017-11-26T20:01:34.434Z,101478.19
2017-11-26T20:04:02.707Z,101475.24
2017-11-26T20:06:32.213Z,101478.80
2017-11-26T20:09:01.963Z,101488.62
2017-11-26T20:11:30.855Z,101481.53
2017-11-26T20:14:00.301Z,101486.63
2017-11-26T20:16:28.781Z,101485.19
2017-11-26T20:18:57.955Z,101489.36
2017-11-26T20:21:25.490Z,101485.02
2017-11-26T20:23:52.493Z,101488.15
2017-11-26T20:26:20.435Z,101484.52
2017-11-26T20:28:47.465Z,101487.14
2017-11-26T20:31:14.428Z,101488.41
2017-11-26T20:33:42.602Z,101491.57
2017-11-26T20:36:11.024Z,101489.55
2017-11-26T20:38:40.178Z,101502.12
2017-11-26T20:41:07.720Z,101491.67
2017-11-26T20:43:36.269Z,101492.25
2017-11-26T20:46:03.972Z,101492.95
2017-11-26T20:48:30.898Z,101498.19
2017-11-26T20:50:59.193Z,101502.19
2017-11-26T20:53:28.194Z,101507.70
2017-11-26T20:55:57.381Z,101503.83
2017-11-26T20:58:26.932Z,101508.63
2017-11-26T21:00:55.561Z,101506.55
2017-11-26T21:03:23.047Z,101501.78
2017-11-26T21:05:50.423Z,101504.41
2017-11-26T21:08:19.094Z,101505.58
2017-11-26T21:10:47.412Z,101510.58
2017-11-26T21:13:15.443Z,101510.95
2017-11-26T21:15:42.492Z,101504.16
2017-11-26T21:18:09.404Z,101501.41
2017-11-26T21:20:36.760Z,101501.20
2017-11-26T21:23:03.671Z,101501.61
2017-11-26T21:25:32.152Z,101492.34
2017-11-26T21:27:59.285Z,101494.93
2017-11-26T21:30:27.627Z,101497.49
2017-11-26T21:32:54.903Z,101496.50
2017-11-26T21:35:24.077Z,101491.13
2017-11-26T21:37:51.024Z,101488.98
2017-11-26T21:40:17.945Z,101489.86
2017-11-26T21:42:44.932Z,101486.23
2017-11-26T21:45:12.556Z,101484.59
2017-11-26T21:47:39.401Z,101488.36
2017-11-26T21:50:06.282Z,101481.97
2017-11-26T21:52:33.230Z,101486.18
2017-11-26T21:55:00.116Z,101480.04
2017-11-26T21:57:27.029Z,101480.50
2017-11-26T21:59:55.680Z,101477.08
2017-11-26T22:02:22.536Z,101476.61
2017-11-26T22:04:49.425Z,101475.30
2017-11-26T22:07:17.162Z,101473.70
2017-11-26T22:09:44.104Z,101470.34
2017-11-26T22:12:11.840Z,101477.77
2017-11-26T22:14:39.493Z,101475.61
2017-11-26T22:17:06.425Z,101470.00
2017-11-26T22:19:34.101Z,101477.48
2017-11-26T22:22:02.108Z,101484.24
2017-11-26T22:24:29.417Z,101485.02
2017-11-26T22:26:56.296Z,101494.13
2017-11-26T22:29:23.520Z,101490.11
2017-11-26T22:31:50.951Z,101483.16
2017-11-26T22:34:17.799Z,101484.06
2017-11-26T22:36:45.070Z,101489.52
2017-11-26T22:39:12.705Z,101493.28
2017-11-26T22:41:39.627Z,101489.27
2017-11-26T22:44:08.935Z,101485.27
2017-11-26T22:46:36.556Z,101491.66
2017-11-26T22:49:04.018Z,101481.56
2017-11-26T22:51:31.597Z,101487.30
2017-11-26T22:53:59.179Z,101484.81
2017-11-26T22:56:26.941Z,101481.75
2017-11-26T22:58:53.827Z,101477.48
2017-11-26T23:01:21.425Z,101480.45
2017-11-26T23:03:48.461Z,101475.33
2017-11-26T23:06:15.970Z,101475.48
2017-11-26T23:08:42.820Z,101478.05
2017-11-26T23:11:09.740Z,101480.97
2017-11-26T23:13:36.637Z,101482.81
2017-11-26T23:16:03.473Z,101490.58
2017-11-26T23:18:31.067Z,101481.25
2017-11-26T23:20:58.688Z,101481.28
2017-11-26T23:23:25.525Z,101478.05
2017-11-26T23:25:52.416Z,101481.16
2017-11-26T23:28:19.289Z,101485.43
2017-11-26T23:30:46.238Z,101482.22
2017-11-26T23:33:14.550Z,101469.44
2017-11-26T23:35:43.134Z,101466.08
2017-11-26T23:38:12.296Z,101452.52
2017-11-26T23:40:43.370Z,101454.20
2017-11-26T23:43:12.733Z,101457.66
2017-11-26T23:45:42.176Z,101457.38
2017-11-26T23:48:11.044Z,101459.03
2017-11-26T23:50:40.026Z,101461.98
